Lafayette, IN (47905)

1:33 PM EDT on July 05, 2015 (GMT -0400)
SW Lafayette | | Change Station
CLOSE
Current Station
Personal Weather Station
Location: Lafayette, IN
Elevation: 627 ft
Nearby Weather Stations
Active Advisory: Flood Warning

Elev 627 ft 40.36 °N, 86.94 °W | Updated 58 seconds ago

Clear
Clear
86.7 °F
Feels Like 89 °F
N
0.0
Wind Variable Wind from East
Gusts 0.0 mph

Today
High -- | Low -- °F
--% Chance of Precip.
Yesterday
High -- | Low -- °F
Precip. -- in
6:23 AM 9:20 PM
Waning Gibbous, 83% visible
Pressure 30.08 in
Visibility 10.0 miles
Clouds Clear
Heat Index 89 °F
Dew Point 67 °F
Humidity 51%
Rainfall 0.00 in
Snow Depth Not available.
UV 11 out of 12
Pollen 3.60 out of 12
Air Quality Not available.
Flu Activity Not available.
METAR KLAF 051654Z 00000KT 10SM CLR 26/16 A3009 RMK AO2 SLP185 T02610161

More Conditions Fewer Conditions

Pressure 30.08 in
Visibility 10.0 miles
Clouds Clear
Heat Index 89 °F
Dew Point 67 °F
Humidity 51%
Rainfall 0.00 in
Snow Depth Not available.
UV 11 out of 12
Pollen 3.60 out of 12
Air Quality Not available.
Flu Activity Not available.
METAR KLAF 051654Z 00000KT 10SM CLR 26/16 A3009 RMK AO2 SLP185 T02610161

More Conditions Fewer Conditions

10-Day Weather Forecast

×

Almanac

Astronomy

Jul. 05, 2015 Rise Set
Actual Time
Civil Twilight
Nautical Twilight
Astronomical Twilight
Moon
Length of Visible Light
Length of Day
Tomorrow will be .
, % of the Moon is Illuminated

Today's Extremes

State Highs State Lows

Community

WunderPhotos

Upload Photos

1,835,323 photos uploaded!

WunderBlogs® & News

Nearby

Air Quality

  Air Quality AQ Index Pollutant
Not available.

Snow Depth

Station Depth Elevation

Earthquake Activity

City Distance Mag. Time & Date
Minimum magnitude displayed is 2.5.

Coastal Water Temperatures

Place Temperature

Stations

Nearby Weather Stations

Station Location Temp. Windchill Dew Point Humidity Wind Precip. Elev Updated Type
                   
Flood Warning
Statement as of 11:58 AM EDT on July 05, 2015

The Flood Warning continues for
the Wabash River at Lafayette.
* Until further notice.
* At 11:46 am Sunday the stage was 14.2 feet.
* Flood stage is 11.0 feet.
* Minor flooding is occurring and minor flooding is forecast.
* Forecast... the river will continue to fall to a stage of 13.4 feet
by tomorrow morning.
* At 14.0 feet... lowland flooding is in progress. High water affects
river Cabins near north 9th street. Low County roads are nearly
impassable. Tapawingo park in West Lafayette begins to flood.


Lat... Lon 4056 8673 4048 8688 4040 8709 4033 8709
      4040 8688 4054 8670